Dodge City, KS

08:23 AM CDT am 23. August 2014 (GMT -0500)
Dodge City Regional | Change Station
CLOSE
Current Station
Flughafen
Location: Dodge City,
Höhe: 2592 ft
Wetterstationen in der Umgebung

Höhe 2592 ft 37.76 °N, 99.97 °W | Updated 31 minutes ago

Clear
Heiter
69 °F
gefühlte 69 °F
N
9
Wind Wechselnd Wind aus Süd

Heute
Max. -- | schwach -- °F
--% Regenrisiko
Gestern
Max. -- | schwach -- °F
Precip. -- inch
7:02 AM 8:22 PM
Letztes Viertel, 4% visible
Druck 29.82 inch
Sichtweite 10.0 Meilen
Wolken Heiter
Taupunkt 61 °F
Feuchtigkeit 75%
Regen 0.02 inch
Schneehöhe Nicht verfügbar..
UV 0 von 12
Pollen 11.40 von 12
Luftqualität Nicht verfügbar..
Flu Activity Nicht verfügbar..
METAR KDDC 231252Z AUTO 18008KT 10SM CLR 21/16 A2991 RMK AO2 SLP098 T02060161

More Conditions Fewer Conditions

Druck 29.82 inch
Sichtweite 10.0 Meilen
Wolken Heiter
Taupunkt 61 °F
Feuchtigkeit 75%
Regen 0.02 inch
Schneehöhe Nicht verfügbar..
UV 0 von 12
Pollen 11.40 von 12
Luftqualität Nicht verfügbar..
Flu Activity Nicht verfügbar..
METAR KDDC 231252Z AUTO 18008KT 10SM CLR 21/16 A2991 RMK AO2 SLP098 T02060161

More Conditions Fewer Conditions

10-Day Weather Forecast

Almanac

Astronomie

Aug. 23, 2014 Aufgang Untergang
Genaue Zeit 07:02 CDT 20:22 CDT
Bürgerliche Dämmerung 06:35 CDT 20:49 CDT
Nautische Dämmerung 06:02 CDT 21:22 CDT
Astronomische Dämmerung 05:27 CDT 21:56 CDT
Mond 05:20 CDT 19:07 CDT
Länge des sichtbaren Lichts 14h 14m
Tageslänge
13h 19m
Tomorrow will be 2m 14s shorter.
Letztes Viertel, 4% of the Moon is Illuminated
Heute
Letztes Viertel
Aug 25
Neu
Sept 2
Erstes Viertel
Sept 8
Vollmond
Sept 15
Letztes Viertel

Heutige Rekorde

State Highs State Lows

Community

WunderPhotos

Upload Photos

1,746,451 Fotos hochgeladen!

WunderBlogs® & News

By Dr. Jeff Masters
Director of Meteorology, Weather Underground
By Kari Strenfel
Meteorologist, Weather Underground
By Christopher C. Burt
Weather Historian, Weather Underground
August 23, 2014
August 23, 2014
August 23, 2014

Nearby

Schneehöhe

Station Depth Höhe
Kein Neuschnee gemeldet.

Erdbebenaktivität

Stadt Distance Mag. Time & Date
Cherokee, Oklahoma 117 Meilen 3.8 20:25 CDT
2014-08-17
Cherokee, Oklahoma 116 Meilen 2.6 11:50 CDT
2014-08-17
Minimum magnitude displayed is 2.5.

küstennahe Wassertemperaturen

Ort Temperatur
Kein Stationsbericht

Wetterstationen in der Umgebung